Welcome to our Virtual Airline
Sign-in:

Flight MFC37591

  • Submitted By: Igor Doksas
  • Departure Airport: Port Williams SPB (KPR)
  • Arrival Airport: Kulik Lake (LKK)
  • Aircraft: DHC2 BEAVERF (N002MM_FL)
  • Flight Time: 00.50.53
  • Date Submitted: 2018/11/21
  • Route: STOP-OVER AT OPTIONAL: (MCNEIL RIVER CAMP (MCN) (WATER) (THIS SPOT IS UN-MARKED BUT IT IS IN MCNEIL COVE)
  • Status: Accepted
Flight Details
Gross Revenue:
(5 load / $ 95.00 per unit
$ 475.00
Fuel Cost:
(71.6676 fuel used @ 5.1 / unit)
$ 365.50

Additional Log Information:

View Log

FS[09:17] NOTE: Boarding has started
FS[09:17] ----- Flight Opened -----
FS[09:17] NOTE: Taxi started
FS[09:17] Cigar Box - 1.1.4.0
FS[09:17] FS: FSX
FS[09:17] FSUIPC: v4.966
FS[09:17] Flight Number: MFC37591
FS[09:17] FS Aircraft: DHC-2A Misty Moorings 3 Amph1
FS[09:17] FS Model: DHC2
FS[09:17] FS Type: DeHavilland
FS[09:17] Departure: KPR
FS[09:17] Arrival: LKK
FS[09:17] Flight Level: 6500
FS[09:17] Flight Type: H
FS[09:17] Passengers: 5
FS[09:17] FOB: 209 lbs
FS[09:17] Gate: n/a
FS[09:17] Crash Detection: Disabled
FS[09:17] Crash Detection Aircraft: Disabled
FS[09:17] Engines: 1 Piston
FS[09:17] FS: Paused
FS[09:17] Parking Brake: Engaged
FS[09:17] Engine 1: Started
FS[09:17] Flaps: Position 2
FS[09:17] Light Data: Navigation ON
FS[09:17] Light Data: Beacon ON
FS[09:17] Light Data: Landing lights ON
FS[09:17] Main Door Closed
FS[09:17] COM1: 128.30
FS[09:17] COM2: 127.80
FS[09:17] Transponder: 1200
FS[09:17] NAV1: 113.70
FS[09:17] NAV2: 110.60
FS[09:17] ADF1: 284.0
FS[09:17] ADF2: 240.0
FS[09:17] Navigation Mode: GPS
FS[09:17] Navigation Mode: GPS
FS[09:17] FS: Unpaused
FS[09:17] Parking Brake: Released
FS[09:17] NOTE: ----- TAKE OFF -----
FS[09:17] GS: 52 knots
FS[09:17] TAS: 52 knots
FS[09:17] IAS: 52 knots
FS[09:17] VS: -9 fpm
FS[09:17] FOB: 209 lbs
FS[09:17] Heading: 79°
FS[09:17] Pitch: 3°
FS[09:17] Bank: 0°
FS[09:17] Aircraft Weight: 3979.37 lbs
FS[09:17] Nearest Airport: KPR
FS[09:17] Distance: 1.64 miles
FS[09:17] Runway: ???
FS[09:17] Ground Surface: Water
FS[09:17] Ground Condition: Normal
FS[09:17] NOTE: Weather Report
FS[09:17] Wind Heading: 344°
FS[09:17] Wind Speed: 0 knots
FS[09:17] OAT: 15° C
FS[09:17] TAT: 15° C
FS[09:17] Precipitation: None
FS[09:17] Dew Point: 5° C
FS[09:17] Visibility: 62 miles
FS[09:17] METAR: KPRB 202253Z AUTO 21008KT 10SM CLR 19/06 A2998 RMK AO2 SLP150 T01940056KPRC 202253Z 33005KT 10SM CLR 13/M11 A3011 RMK AO2 SLP174 T01281106KPRG 202255Z AUTO 24005KT 10SM SCT027 00/M03 A3026 RMK AO2 T10051035KPRN 201722Z AUTO 33008KT 270V350 10SM BKN006 BKN010 OVC014 12/08 A3019 RMK AO2 T01220083 PNOKPRO 202335Z AUTO 20007KT 10SM CLR 00/M05 A3012 RMK AO2 T00041051KPRS 202255Z AUTO 07012KT 10SM CLR 19/04 A3015 RMK AO2 T01870041KPRX 202256Z AUTO 35005KT 10SM CLR 11/M01 A3032 RMK AO2 SLP285 T01061011
FS[09:17] NOTE: Climb started
FS[09:17] Flaps: Position 1
FS[09:17] GS: 75 knots
FS[09:17] TAS: 77 knots
FS[09:17] IAS: 77 knots
FS[09:17] VS: 938 fpm
FS[09:17] Autopilot: Engaged
FS[09:17] AGL: 167 ft
FS[09:17] AMSL: 167 ft
FS[09:17] View Mode: Virtual Cockpit
FS[09:17] Flaps: Position 0
FS[09:17] GS: 85 knots
FS[09:17] TAS: 87 knots
FS[09:17] IAS: 86 knots
FS[09:17] VS: 1235 fpm
FS[09:18] Light Data: Landing lights OFF
FS[09:18] AGL: 629 ft
FS[09:18] AMSL: 629 ft
FS[09:23] NOTE: TOC reached
FS[09:23] NOTE: Cruise started
FS[09:23] GS: 91 knots
FS[09:23] TAS: 105 knots
FS[09:23] IAS: 95 knots
FS[09:23] VS: 197 fpm
FS[09:23] FOB: 186 lbs
FS[09:23] Heading: 299°
FS[09:23] Pitch: 3°
FS[09:23] Bank: 0°
FS[09:23] Aircraft Weight: 3956.27 lbs
FS[09:33] Recovery: Flight Saved
FS[09:39] NOTE: TOD reached
FS[09:39] NOTE: Descent started
FS[09:39] GS: 116 knots
FS[09:39] TAS: 134 knots
FS[09:39] IAS: 123 knots
FS[09:39] VS: -778 fpm
FS[09:39] FOB: 124 lbs
FS[09:39] Heading: 278°
FS[09:39] Pitch: 2°
FS[09:39] Bank: 0°
FS[09:39] Aircraft Weight: 3894.40 lbs
FS[09:40] NOTE: On approach
FS[09:47] FS: Paused
FS[09:47] FS: Unpaused
FS[09:47] Recovery: Flight Saved
FS[09:48] Flaps: Position 1
FS[09:48] GS: 99 knots
FS[09:48] TAS: 101 knots
FS[09:48] IAS: 98 knots
FS[09:48] VS: -229 fpm
FS[09:48] Light Data: Landing lights ON
FS[09:48] AGL: 1833 ft
FS[09:48] AMSL: 1833 ft
FS[09:49] FS: Paused
FS[09:49] Autopilot: Disengaged
FS[09:49] AGL: 1414 ft
FS[09:49] AMSL: 1414 ft
FS[09:49] FS: Unpaused
FS[09:50] Autopilot: Engaged
FS[09:50] AGL: 1026 ft
FS[09:50] AMSL: 1026 ft
FS[09:50] Flaps: Position 2
FS[09:50] GS: 87 knots
FS[09:50] TAS: 88 knots
FS[09:50] IAS: 87 knots
FS[09:50] VS: -482 fpm
FS[09:50] Autopilot: Disengaged
FS[09:50] AGL: 712 ft
FS[09:50] AMSL: 797 ft
FS[09:50] Flaps: Position 3
FS[09:50] GS: 75 knots
FS[09:50] TAS: 77 knots
FS[09:50] IAS: 76 knots
FS[09:50] VS: -322 fpm
FS[09:50] Autopilot: Engaged
FS[09:50] AGL: 646 ft
FS[09:50] AMSL: 741 ft
FS[09:51] Autopilot: Disengaged
FS[09:51] AGL: 91 ft
FS[09:51] AMSL: 91 ft
FS[09:52] NOTE: ----- LANDED -----
FS[09:52] Landing Rate: -84.58 fpm
FS[09:52] GS: 48 knots
FS[09:52] TAS: 49 knots
FS[09:52] IAS: 49 knots
FS[09:52] VS: -84 fpm
FS[09:52] FOB: 97 lbs
FS[09:52] Heading: 270°
FS[09:52] Pitch: 3°
FS[09:52] Bank: 0°
FS[09:52] Aircraft Weight: 3867.10 lbs
FS[09:52] Nearest Airport: LKK
FS[09:52] Distance: 28.69 miles
FS[09:52] Runway: ???
FS[09:52] Ground Surface: Water
FS[09:52] Ground Condition: Snow
FS[09:52] NOTE: Weather Report
FS[09:52] Wind Heading: 345°
FS[09:52] Wind Speed: 0 knots
FS[09:52] OAT: 15° C
FS[09:52] TAT: 15° C
FS[09:52] Precipitation: None
FS[09:52] Dew Point: 4° C
FS[09:52] Visibility: 62 miles
FS[09:52] METAR: LKKB 202300Z 06006KT 2500 BR FEW003 SCT020 OVC030 00/M01 Q1014LKKU 201700Z 03008KT 4300 BR OVC020 02/01 Q1013LKKV 202300Z 08004KT 050V120 9000 OVC007 M01/M02 Q1012 R29///////
FS[09:52] View Mode: Virtual Cockpit
FS[09:52] Flaps: Position 0
FS[09:52] NOTE: Taxi started
FS[09:52] Flaps: Position 2
FS[09:53] Flaps: Position 1
FS[09:53] GS: 69 knots
FS[09:53] TAS: 70 knots
FS[09:53] IAS: 70 knots
FS[09:53] VS: 596 fpm
FS[09:53] View Mode: Virtual Cockpit
FS[09:53] Autopilot: Engaged
FS[09:53] AGL: 223 ft
FS[09:53] AMSL: 223 ft
FS[09:53] Flaps: Position 0
FS[09:53] GS: 77 knots
FS[09:53] TAS: 78 knots
FS[09:53] IAS: 78 knots
FS[09:53] VS: 1287 fpm
FS[09:53] Light Data: Landing lights OFF
FS[09:53] AGL: 482 ft
FS[09:53] AMSL: 482 ft
FS[09:55] FS: Paused
FS[09:55] FS: Unpaused
FS[10:04] Light Data: Landing lights ON
FS[10:04] AGL: 436 ft
FS[10:04] AMSL: 3989 ft
FS[10:06] Flaps: Position 1
FS[10:06] GS: 118 knots
FS[10:06] TAS: 120 knots
FS[10:06] IAS: 115 knots
FS[10:06] VS: -962 fpm
FS[10:06] Flaps: Position 2
FS[10:06] GS: 104 knots
FS[10:06] TAS: 106 knots
FS[10:06] IAS: 102 knots
FS[10:06] VS: -925 fpm
FS[10:06] FS: Paused
FS[10:06] FS: Unpaused
FS[10:06] Landing Gear: Retracted
FS[10:06] GS: 85 knots
FS[10:06] TAS: 86 knots
FS[10:06] IAS: 83 knots
FS[10:06] VS: -593 fpm
FS[10:06] AGL: 1601 ft
FS[10:06] AMSL: 2257 ft
FS[10:06] Flaps: Position 3
FS[10:06] GS: 85 knots
FS[10:06] TAS: 86 knots
FS[10:06] IAS: 83 knots
FS[10:06] VS: -722 fpm
FS[10:06] Landing Gear: Extended
FS[10:06] GS: 71 knots
FS[10:06] TAS: 73 knots
FS[10:06] IAS: 71 knots
FS[10:06] VS: -619 fpm
FS[10:06] AGL: 1515 ft
FS[10:06] AMSL: 2171 ft
FS[10:07] Autopilot: Disengaged
FS[10:07] AGL: 813 ft
FS[10:07] AMSL: 1469 ft
FS[10:07] Landing Gear: Retracted
FS[10:07] GS: 71 knots
FS[10:07] TAS: 74 knots
FS[10:07] IAS: 72 knots
FS[10:07] VS: -1260 fpm
FS[10:07] AGL: 794 ft
FS[10:07] AMSL: 1450 ft
FS[10:07] Landing Gear: Extended
FS[10:07] GS: 69 knots
FS[10:07] TAS: 72 knots
FS[10:07] IAS: 71 knots
FS[10:07] VS: -1235 fpm
FS[10:07] AGL: 580 ft
FS[10:07] AMSL: 1236 ft
FS[10:08] NOTE: ----- LANDED -----
FS[10:08] Landing Rate: -162.25 fpm
FS[10:08] GS: 40 knots
FS[10:08] TAS: 41 knots
FS[10:08] IAS: 40 knots
FS[10:08] VS: -66 fpm
FS[10:08] FOB: 52 lbs
FS[10:08] Heading: 231°
FS[10:08] Pitch: 1°
FS[10:08] Bank: 0°
FS[10:08] Aircraft Weight: 3822.16 lbs
FS[10:08] Nearest Airport: LKK
FS[10:08] Distance: 0.87 miles
FS[10:08] Runway: 24 - LKK
FS[10:08] Ground Surface: Grass Bumpy
FS[10:08] Ground Condition: Snow
FS[10:08] NOTE: Weather Report
FS[10:08] Wind Heading: 345°
FS[10:08] Wind Speed: 0 knots
FS[10:08] OAT: 13° C
FS[10:08] TAT: 13° C
FS[10:08] Precipitation: None
FS[10:08] Dew Point: 3° C
FS[10:08] Visibility: 62 miles
FS[10:08] METAR: LKKB 202300Z 06006KT 2500 BR FEW003 SCT020 OVC030 00/M01 Q1014LKKU 201700Z 03008KT 4300 BR OVC020 02/01 Q1013LKKV 202300Z 08004KT 050V120 9000 OVC007 M01/M02 Q1012 R29///////
FS[10:08] View Mode: Virtual Cockpit
FS[10:08] Flaps: Position 2
FS[10:09] Flaps: Position 0
FS[10:09] NOTE: Arrived
FS[10:09] Parking Brake: Engaged
FS[10:09] Engine 1: Stopped
FS[10:10] Light Data: Landing lights OFF
FS[10:10] Light Data: Navigation OFF
FS[10:10] Light Data: Beacon OFF
FS[10:10] Main Door Open
FS[10:10] Gate: n/a
FS[10:10] NOTE: Flight Completed
FS[10:10] FS Aircraft: DHC-2A Misty Moorings 3 Amph1
FS[10:10] FS Model: DHC2
FS[10:10] FS Type: DeHavilland
FS[10:10] FOB: 51 lbs
FS[10:10] Fuel Used: 158 lbs
FS[10:10] Flight Time: 00:50:53
FS[10:10] Flight Time (Dawn): 00:00:00
FS[10:10] Flight Time (Day): 00:50:53
FS[10:10] Flight Time (Dusk): 00:00:00
FS[10:10] Flight Time (Night): 00:00:00
FS[10:10] Total Landings: 2
FS[10:10] MaxSim Rate: 0x
FS[10:10] Cigar Box - 1.1.4.0
FS[10:10] ----- Flight Closed -----

Route Map